Monte Cristi, Dominican Republic
Current Conditions -  °F | °C
As of 1:00 AM on Thursday 18 Dec 2014 (Local Time) from MDST Reporting Station
Scattered Clouds Scattered Clouds  
Wind Chill: 70°   Ceiling: Unl
Heat Index: 70°   Visibility: 6mi
Dew Point: 70°   Wind: 0mph
Humidity: 100%   Direction: NA
Pressure: 30.06"   Gusts: NA
Location:  19.85°N, 71.65°W
Report Text: MDST 180500Z 00000KT 9999 SCT016 21/21 Q1018 NOSIG
Loading
Personal Weather Stations






























Interactive Weather Map New forecast layout! Learn more

10-Day Weather Forecast

Advertisements
Track Severe Weather on mobile